sensor_id;sensor_type;location;lat;lon;timestamp;temperature;humidity
6110;DHT22;3085;49.444;11.054;2022-11-02T00:00:27;12.60;99.90
6110;DHT22;3085;49.444;11.054;2022-11-02T00:02:55;12.60;99.90
6110;DHT22;3085;49.444;11.054;2022-11-02T00:05:25;12.60;99.90
6110;DHT22;3085;49.444;11.054;2022-11-02T00:07:53;12.60;99.90
6110;DHT22;3085;49.444;11.054;2022-11-02T00:10:20;12.60;99.90
6110;DHT22;3085;49.444;11.054;2022-11-02T00:12:48;12.60;99.90
6110;DHT22;3085;49.444;11.054;2022-11-02T00:15:16;12.50;99.90
6110;DHT22;3085;49.444;11.054;2022-11-02T00:17:45;12.50;99.90
6110;DHT22;3085;49.444;11.054;2022-11-02T00:20:15;12.60;99.90
6110;DHT22;3085;49.444;11.054;2022-11-02T00:22:45;12.40;99.90
6110;DHT22;3085;49.444;11.054;2022-11-02T00:25:14;12.40;99.90
6110;DHT22;3085;49.444;11.054;2022-11-02T00:27:43;12.40;99.90
6110;DHT22;3085;49.444;11.054;2022-11-02T00:30:10;12.40;99.90
6110;DHT22;3085;49.444;11.054;2022-11-02T00:32:37;12.50;99.90
6110;DHT22;3085;49.444;11.054;2022-11-02T00:35:04;12.50;99.90
6110;DHT22;3085;49.444;11.054;2022-11-02T00:37:31;12.50;99.90
6110;DHT22;3085;49.444;11.054;2022-11-02T00:40:00;12.50;99.90
6110;DHT22;3085;49.444;11.054;2022-11-02T00:42:26;12.50;99.90
6110;DHT22;3085;49.444;11.054;2022-11-02T00:44:53;12.50;99.90
6110;DHT22;3085;49.444;11.054;2022-11-02T00:47:20;12.60;99.90
6110;DHT22;3085;49.444;11.054;2022-11-02T00:49:47;12.60;99.90
6110;DHT22;3085;49.444;11.054;2022-11-02T00:52:14;12.60;99.90
6110;DHT22;3085;49.444;11.054;2022-11-02T00:54:41;12.60;99.90
6110;DHT22;3085;49.444;11.054;2022-11-02T00:57:10;12.50;99.90
6110;DHT22;3085;49.444;11.054;2022-11-02T00:59:36;12.50;99.90
6110;DHT22;3085;49.444;11.054;2022-11-02T01:02:03;12.40;99.90
6110;DHT22;3085;49.444;11.054;2022-11-02T01:04:30;12.40;99.90
6110;DHT22;3085;49.444;11.054;2022-11-02T01:06:57;12.40;99.90
6110;DHT22;3085;49.444;11.054;2022-11-02T01:09:23;12.50;99.90
6110;DHT22;3085;49.444;11.054;2022-11-02T01:11:50;12.50;99.90
6110;DHT22;3085;49.444;11.054;2022-11-02T01:14:20;12.50;99.90
6110;DHT22;3085;49.444;11.054;2022-11-02T01:16:47;12.40;99.90
6110;DHT22;3085;49.444;11.054;2022-11-02T01:19:14;12.40;99.90
6110;DHT22;3085;49.444;11.054;2022-11-02T01:21:40;12.30;99.90
6110;DHT22;3085;49.444;11.054;2022-11-02T01:24:07;12.20;99.90
6110;DHT22;3085;49.444;11.054;2022-11-02T01:26:34;12.20;99.90
6110;DHT22;3085;49.444;11.054;2022-11-02T01:29:01;12.30;99.90
6110;DHT22;3085;49.444;11.054;2022-11-02T01:31:29;12.40;99.90
6110;DHT22;3085;49.444;11.054;2022-11-02T01:33:56;12.40;99.90
6110;DHT22;3085;49.444;11.054;2022-11-02T01:36:23;12.40;99.90
6110;DHT22;3085;49.444;11.054;2022-11-02T01:38:49;12.40;99.90
6110;DHT22;3085;49.444;11.054;2022-11-02T01:41:17;12.40;99.90
6110;DHT22;3085;49.444;11.054;2022-11-02T01:43:45;12.30;99.90
6110;DHT22;3085;49.444;11.054;2022-11-02T01:46:15;12.30;99.90
6110;DHT22;3085;49.444;11.054;2022-11-02T01:48:49;12.40;99.90
6110;DHT22;3085;49.444;11.054;2022-11-02T01:51:20;12.40;99.90
6110;DHT22;3085;49.444;11.054;2022-11-02T01:53:49;12.40;99.90
6110;DHT22;3085;49.444;11.054;2022-11-02T01:56:18;12.40;99.90
6110;DHT22;3085;49.444;11.054;2022-11-02T01:58:50;12.40;99.90
6110;DHT22;3085;49.444;11.054;2022-11-02T02:01:18;12.40;99.90
6110;DHT22;3085;49.444;11.054;2022-11-02T02:03:47;12.40;99.90
6110;DHT22;3085;49.444;11.054;2022-11-02T02:06:14;12.50;99.90
6110;DHT22;3085;49.444;11.054;2022-11-02T02:08:45;12.40;99.90
6110;DHT22;3085;49.444;11.054;2022-11-02T02:13:46;12.40;99.90
6110;DHT22;3085;49.444;11.054;2022-11-02T02:16:19;12.50;99.90
6110;DHT22;3085;49.444;11.054;2022-11-02T02:18:53;12.40;99.90
6110;DHT22;3085;49.444;11.054;2022-11-02T02:21:30;12.30;99.90
6110;DHT22;3085;49.444;11.054;2022-11-02T02:27:04;11.40;99.90
6110;DHT22;3085;49.444;11.054;2022-11-02T02:29:51;12.40;99.90
6110;DHT22;3085;49.444;11.054;2022-11-02T02:32:26;12.10;99.90
6110;DHT22;3085;49.444;11.054;2022-11-02T02:34:57;12.10;99.90
6110;DHT22;3085;49.444;11.054;2022-11-02T02:37:34;12.10;99.90
6110;DHT22;3085;49.444;11.054;2022-11-02T02:40:08;12.10;99.90
6110;DHT22;3085;49.444;11.054;2022-11-02T02:42:40;12.00;99.90
6110;DHT22;3085;49.444;11.054;2022-11-02T02:45:15;11.80;99.90
6110;DHT22;3085;49.444;11.054;2022-11-02T02:47:47;11.90;99.90
6110;DHT22;3085;49.444;11.054;2022-11-02T02:50:18;11.80;99.90
6110;DHT22;3085;49.444;11.054;2022-11-02T02:52:49;11.70;99.90
6110;DHT22;3085;49.444;11.054;2022-11-02T02:55:22;11.60;99.90
6110;DHT22;3085;49.444;11.054;2022-11-02T02:57:50;11.60;99.90
6110;DHT22;3085;49.444;11.054;2022-11-02T03:00:21;11.70;99.90
6110;DHT22;3085;49.444;11.054;2022-11-02T03:02:48;11.80;99.90
6110;DHT22;3085;49.444;11.054;2022-11-02T03:05:28;11.90;99.90
6110;DHT22;3085;49.444;11.054;2022-11-02T03:08:01;11.90;99.90
6110;DHT22;3085;49.444;11.054;2022-11-02T03:10:32;11.90;99.90
6110;DHT22;3085;49.444;11.054;2022-11-02T03:13:17;11.90;99.90
6110;DHT22;3085;49.444;11.054;2022-11-02T03:15:50;12.10;99.90
6110;DHT22;3085;49.444;11.054;2022-11-02T03:18:23;12.90;99.90
6110;DHT22;3085;49.444;11.054;2022-11-02T03:21:00;11.80;99.90
6110;DHT22;3085;49.444;11.054;2022-11-02T03:23:33;11.80;99.90
6110;DHT22;3085;49.444;11.054;2022-11-02T03:26:05;12.30;99.90
6110;DHT22;3085;49.444;11.054;2022-11-02T03:28:43;11.80;99.90
6110;DHT22;3085;49.444;11.054;2022-11-02T03:31:17;11.60;99.90
6110;DHT22;3085;49.444;11.054;2022-11-02T03:33:53;11.40;99.90
6110;DHT22;3085;49.444;11.054;2022-11-02T03:36:24;11.10;99.90
6110;DHT22;3085;49.444;11.054;2022-11-02T03:38:59;11.10;99.90
6110;DHT22;3085;49.444;11.054;2022-11-02T03:41:27;11.00;99.90
6110;DHT22;3085;49.444;11.054;2022-11-02T03:43:59;10.80;99.90
6110;DHT22;3085;49.444;11.054;2022-11-02T03:46:32;11.00;99.90
6110;DHT22;3085;49.444;11.054;2022-11-02T03:49:01;11.00;99.90
6110;DHT22;3085;49.444;11.054;2022-11-02T03:51:30;10.80;99.90
6110;DHT22;3085;49.444;11.054;2022-11-02T03:54:00;10.70;99.90
6110;DHT22;3085;49.444;11.054;2022-11-02T03:56:34;10.70;99.90
6110;DHT22;3085;49.444;11.054;2022-11-02T03:59:01;10.70;99.90
6110;DHT22;3085;49.444;11.054;2022-11-02T04:01:30;10.80;99.90
6110;DHT22;3085;49.444;11.054;2022-11-02T04:04:03;10.80;99.90
6110;DHT22;3085;49.444;11.054;2022-11-02T04:06:30;10.70;99.90
6110;DHT22;3085;49.444;11.054;2022-11-02T04:08:57;10.60;99.90
6110;DHT22;3085;49.444;11.054;2022-11-02T04:11:24;10.70;99.90
6110;DHT22;3085;49.444;11.054;2022-11-02T04:14:09;10.50;99.90
6110;DHT22;3085;49.444;11.054;2022-11-02T04:16:55;10.60;99.90
6110;DHT22;3085;49.444;11.054;2022-11-02T04:19:36;10.50;99.90
6110;DHT22;3085;49.444;11.054;2022-11-02T04:22:02;10.40;99.90
6110;DHT22;3085;49.444;11.054;2022-11-02T04:24:47;10.30;99.90
6110;DHT22;3085;49.444;11.054;2022-11-02T04:27:32;10.40;99.90
6110;DHT22;3085;49.444;11.054;2022-11-02T04:29:59;10.10;99.90
6110;DHT22;3085;49.444;11.054;2022-11-02T04:32:27;10.20;99.90
6110;DHT22;3085;49.444;11.054;2022-11-02T04:35:11;10.10;99.90
6110;DHT22;3085;49.444;11.054;2022-11-02T04:37:38;10.20;99.90
6110;DHT22;3085;49.444;11.054;2022-11-02T04:40:23;10.20;99.90
6110;DHT22;3085;49.444;11.054;2022-11-02T04:42:50;10.20;99.90
6110;DHT22;3085;49.444;11.054;2022-11-02T04:45:17;10.30;99.90
6110;DHT22;3085;49.444;11.054;2022-11-02T04:47:45;10.30;99.90
6110;DHT22;3085;49.444;11.054;2022-11-02T04:50:12;10.30;99.90
6110;DHT22;3085;49.444;11.054;2022-11-02T04:52:38;9.70;99.90
6110;DHT22;3085;49.444;11.054;2022-11-02T04:55:06;10.20;99.90
6110;DHT22;3085;49.444;11.054;2022-11-02T04:57:33;10.20;99.90
6110;DHT22;3085;49.444;11.054;2022-11-02T05:00:00;10.20;99.90
6110;DHT22;3085;49.444;11.054;2022-11-02T05:02:29;10.20;99.90
6110;DHT22;3085;49.444;11.054;2022-11-02T05:04:57;10.20;99.90
6110;DHT22;3085;49.444;11.054;2022-11-02T05:07:24;10.00;99.90
6110;DHT22;3085;49.444;11.054;2022-11-02T05:09:51;9.90;99.90
6110;DHT22;3085;49.444;11.054;2022-11-02T05:12:18;10.00;99.90
6110;DHT22;3085;49.444;11.054;2022-11-02T05:14:45;10.00;99.90
6110;DHT22;3085;49.444;11.054;2022-11-02T05:17:12;10.00;99.90
6110;DHT22;3085;49.444;11.054;2022-11-02T05:19:41;10.10;99.90
6110;DHT22;3085;49.444;11.054;2022-11-02T05:22:09;10.20;99.90
6110;DHT22;3085;49.444;11.054;2022-11-02T05:24:36;10.10;99.90
6110;DHT22;3085;49.444;11.054;2022-11-02T05:27:05;10.20;99.90
6110;DHT22;3085;49.444;11.054;2022-11-02T05:29:32;10.10;99.90
6110;DHT22;3085;49.444;11.054;2022-11-02T05:31:59;10.00;99.90
6110;DHT22;3085;49.444;11.054;2022-11-02T05:34:26;9.90;99.90
6110;DHT22;3085;49.444;11.054;2022-11-02T05:36:53;9.90;99.90
6110;DHT22;3085;49.444;11.054;2022-11-02T05:39:21;9.90;99.90
6110;DHT22;3085;49.444;11.054;2022-11-02T05:41:48;10.40;99.90
6110;DHT22;3085;49.444;11.054;2022-11-02T05:44:15;9.80;99.90
6110;DHT22;3085;49.444;11.054;2022-11-02T05:46:42;9.80;99.90
6110;DHT22;3085;49.444;11.054;2022-11-02T05:49:09;10.00;99.90
6110;DHT22;3085;49.444;11.054;2022-11-02T05:51:36;10.10;99.90
6110;DHT22;3085;49.444;11.054;2022-11-02T05:54:03;10.00;99.90
6110;DHT22;3085;49.444;11.054;2022-11-02T05:56:31;10.00;99.90
6110;DHT22;3085;49.444;11.054;2022-11-02T05:58:58;10.00;99.90
6110;DHT22;3085;49.444;11.054;2022-11-02T06:01:25;10.20;99.90
6110;DHT22;3085;49.444;11.054;2022-11-02T06:03:52;10.00;99.90
6110;DHT22;3085;49.444;11.054;2022-11-02T06:06:19;10.00;99.90
6110;DHT22;3085;49.444;11.054;2022-11-02T06:08:46;10.10;99.90
6110;DHT22;3085;49.444;11.054;2022-11-02T06:11:13;10.00;99.90
6110;DHT22;3085;49.444;11.054;2022-11-02T06:13:42;10.00;99.90
6110;DHT22;3085;49.444;11.054;2022-11-02T06:16:10;10.10;99.90
6110;DHT22;3085;49.444;11.054;2022-11-02T06:18:40;10.10;99.90
6110;DHT22;3085;49.444;11.054;2022-11-02T06:21:07;10.20;99.90
6110;DHT22;3085;49.444;11.054;2022-11-02T06:23:34;9.50;99.90
6110;DHT22;3085;49.444;11.054;2022-11-02T06:26:02;10.20;99.90
6110;DHT22;3085;49.444;11.054;2022-11-02T06:28:29;10.10;99.90
6110;DHT22;3085;49.444;11.054;2022-11-02T06:30:57;10.20;99.90
6110;DHT22;3085;49.444;11.054;2022-11-02T06:33:25;10.20;99.90
6110;DHT22;3085;49.444;11.054;2022-11-02T06:35:53;10.20;99.90
6110;DHT22;3085;49.444;11.054;2022-11-02T06:38:21;10.20;99.90
6110;DHT22;3085;49.444;11.054;2022-11-02T06:40:54;10.00;99.90
6110;DHT22;3085;49.444;11.054;2022-11-02T06:43:22;9.90;99.90
6110;DHT22;3085;49.444;11.054;2022-11-02T06:45:49;9.90;99.90
6110;DHT22;3085;49.444;11.054;2022-11-02T06:48:18;9.90;99.90
6110;DHT22;3085;49.444;11.054;2022-11-02T06:50:44;10.10;99.90
6110;DHT22;3085;49.444;11.054;2022-11-02T06:53:11;10.10;99.90
6110;DHT22;3085;49.444;11.054;2022-11-02T06:55:38;10.20;99.90
6110;DHT22;3085;49.444;11.054;2022-11-02T06:58:05;10.20;99.90
6110;DHT22;3085;49.444;11.054;2022-11-02T07:00:32;10.20;99.90
6110;DHT22;3085;49.444;11.054;2022-11-02T07:03:00;10.30;99.90
6110;DHT22;3085;49.444;11.054;2022-11-02T07:05:29;10.30;99.90
6110;DHT22;3085;49.444;11.054;2022-11-02T07:07:56;10.30;99.90
6110;DHT22;3085;49.444;11.054;2022-11-02T07:10:24;10.30;99.90
6110;DHT22;3085;49.444;11.054;2022-11-02T07:12:51;10.40;99.90
6110;DHT22;3085;49.444;11.054;2022-11-02T07:15:19;10.30;99.90
6110;DHT22;3085;49.444;11.054;2022-11-02T07:17:46;10.40;99.90
6110;DHT22;3085;49.444;11.054;2022-11-02T07:20:13;10.20;99.90
6110;DHT22;3085;49.444;11.054;2022-11-02T07:22:50;10.30;99.90
6110;DHT22;3085;49.444;11.054;2022-11-02T07:25:17;10.40;99.90
6110;DHT22;3085;49.444;11.054;2022-11-02T07:27:44;10.40;99.90
6110;DHT22;3085;49.444;11.054;2022-11-02T07:30:11;10.50;99.90
6110;DHT22;3085;49.444;11.054;2022-11-02T07:32:38;10.40;99.90
6110;DHT22;3085;49.444;11.054;2022-11-02T07:35:07;10.40;99.90
6110;DHT22;3085;49.444;11.054;2022-11-02T07:37:34;10.50;99.90
6110;DHT22;3085;49.444;11.054;2022-11-02T07:40:04;10.50;99.90
6110;DHT22;3085;49.444;11.054;2022-11-02T07:42:31;10.50;99.90
6110;DHT22;3085;49.444;11.054;2022-11-02T07:44:58;10.60;99.90
6110;DHT22;3085;49.444;11.054;2022-11-02T07:47:25;10.60;99.90
6110;DHT22;3085;49.444;11.054;2022-11-02T07:49:52;10.60;99.90
6110;DHT22;3085;49.444;11.054;2022-11-02T07:52:19;10.50;99.90
6110;DHT22;3085;49.444;11.054;2022-11-02T07:54:46;10.60;99.90
6110;DHT22;3085;49.444;11.054;2022-11-02T07:57:14;10.70;99.90
6110;DHT22;3085;49.444;11.054;2022-11-02T07:59:41;10.70;99.90
6110;DHT22;3085;49.444;11.054;2022-11-02T08:02:10;10.80;99.90
6110;DHT22;3085;49.444;11.054;2022-11-02T08:04:38;10.80;99.90
6110;DHT22;3085;49.444;11.054;2022-11-02T08:07:05;10.90;99.90
6110;DHT22;3085;49.444;11.054;2022-11-02T08:09:32;11.00;99.90
6110;DHT22;3085;49.444;11.054;2022-11-02T08:11:59;11.10;99.90
6110;DHT22;3085;49.444;11.054;2022-11-02T08:14:28;11.00;99.90
6110;DHT22;3085;49.444;11.054;2022-11-02T08:16:55;11.10;99.90
6110;DHT22;3085;49.444;11.054;2022-11-02T08:19:22;11.10;99.90
6110;DHT22;3085;49.444;11.054;2022-11-02T08:21:48;11.20;99.90
6110;DHT22;3085;49.444;11.054;2022-11-02T08:24:15;11.30;99.90
6110;DHT22;3085;49.444;11.054;2022-11-02T08:26:42;11.30;99.90
6110;DHT22;3085;49.444;11.054;2022-11-02T08:29:09;11.40;99.90
6110;DHT22;3085;49.444;11.054;2022-11-02T08:31:38;11.50;99.90
6110;DHT22;3085;49.444;11.054;2022-11-02T08:34:05;11.50;99.90
6110;DHT22;3085;49.444;11.054;2022-11-02T08:36:34;11.60;99.90
6110;DHT22;3085;49.444;11.054;2022-11-02T08:39:01;11.80;99.90
6110;DHT22;3085;49.444;11.054;2022-11-02T08:41:28;11.90;99.90
6110;DHT22;3085;49.444;11.054;2022-11-02T08:43:55;11.90;99.90
6110;DHT22;3085;49.444;11.054;2022-11-02T08:46:23;12.10;99.90
6110;DHT22;3085;49.444;11.054;2022-11-02T08:48:51;12.10;99.90
6110;DHT22;3085;49.444;11.054;2022-11-02T08:51:18;12.30;99.90
6110;DHT22;3085;49.444;11.054;2022-11-02T08:53:45;12.40;99.90
6110;DHT22;3085;49.444;11.054;2022-11-02T08:56:12;12.40;99.90
6110;DHT22;3085;49.444;11.054;2022-11-02T08:58:39;12.40;99.90
6110;DHT22;3085;49.444;11.054;2022-11-02T09:01:06;12.40;99.90
6110;DHT22;3085;49.444;11.054;2022-11-02T09:03:33;12.40;99.90
6110;DHT22;3085;49.444;11.054;2022-11-02T09:06:01;12.40;99.90
6110;DHT22;3085;49.444;11.054;2022-11-02T09:08:29;12.40;99.90
6110;DHT22;3085;49.444;11.054;2022-11-02T09:10:58;12.40;99.90
6110;DHT22;3085;49.444;11.054;2022-11-02T09:13:26;12.40;99.90
6110;DHT22;3085;49.444;11.054;2022-11-02T09:15:54;12.30;99.90
6110;DHT22;3085;49.444;11.054;2022-11-02T09:18:22;12.40;99.90
6110;DHT22;3085;49.444;11.054;2022-11-02T09:20:49;12.30;99.90
6110;DHT22;3085;49.444;11.054;2022-11-02T09:23:18;12.30;99.90
6110;DHT22;3085;49.444;11.054;2022-11-02T09:25:46;12.30;99.90
6110;DHT22;3085;49.444;11.054;2022-11-02T09:28:13;12.40;99.90
6110;DHT22;3085;49.444;11.054;2022-11-02T09:30:41;12.50;99.90
6110;DHT22;3085;49.444;11.054;2022-11-02T09:33:08;12.50;99.90
6110;DHT22;3085;49.444;11.054;2022-11-02T09:35:37;12.70;99.90
6110;DHT22;3085;49.444;11.054;2022-11-02T09:38:05;12.60;99.90
6110;DHT22;3085;49.444;11.054;2022-11-02T09:40:37;12.70;99.90
6110;DHT22;3085;49.444;11.054;2022-11-02T09:43:11;12.70;99.90
6110;DHT22;3085;49.444;11.054;2022-11-02T09:45:47;12.80;99.90
6110;DHT22;3085;49.444;11.054;2022-11-02T09:48:17;12.90;99.90
6110;DHT22;3085;49.444;11.054;2022-11-02T09:50:49;12.90;99.90
6110;DHT22;3085;49.444;11.054;2022-11-02T09:53:20;12.90;99.90
6110;DHT22;3085;49.444;11.054;2022-11-02T09:55:52;13.00;99.90
6110;DHT22;3085;49.444;11.054;2022-11-02T09:58:24;13.00;99.90
6110;DHT22;3085;49.444;11.054;2022-11-02T10:00:57;13.10;99.90
6110;DHT22;3085;49.444;11.054;2022-11-02T10:03:35;13.00;99.90
6110;DHT22;3085;49.444;11.054;2022-11-02T10:06:10;13.00;99.90
6110;DHT22;3085;49.444;11.054;2022-11-02T10:08:47;13.00;99.90
6110;DHT22;3085;49.444;11.054;2022-11-02T10:11:25;13.00;99.90
6110;DHT22;3085;49.444;11.054;2022-11-02T10:13:59;13.00;99.90
6110;DHT22;3085;49.444;11.054;2022-11-02T10:16:33;13.10;99.90
6110;DHT22;3085;49.444;11.054;2022-11-02T10:19:09;13.10;99.90
6110;DHT22;3085;49.444;11.054;2022-11-02T10:21:45;13.20;99.90
6110;DHT22;3085;49.444;11.054;2022-11-02T10:24:24;13.20;99.90
6110;DHT22;3085;49.444;11.054;2022-11-02T10:26:59;13.30;99.90
6110;DHT22;3085;49.444;11.054;2022-11-02T10:29:36;13.40;99.90
6110;DHT22;3085;49.444;11.054;2022-11-02T10:32:09;13.20;99.90
6110;DHT22;3085;49.444;11.054;2022-11-02T10:34:36;13.30;99.90
6110;DHT22;3085;49.444;11.054;2022-11-02T10:37:18;13.30;99.90
6110;DHT22;3085;49.444;11.054;2022-11-02T10:39:57;13.30;99.90
6110;DHT22;3085;49.444;11.054;2022-11-02T10:42:39;13.30;99.90
6110;DHT22;3085;49.444;11.054;2022-11-02T10:48:27;13.40;99.90
6110;DHT22;3085;49.444;11.054;2022-11-02T10:51:06;13.40;99.90
6110;DHT22;3085;49.444;11.054;2022-11-02T10:53:35;13.40;99.90
6110;DHT22;3085;49.444;11.054;2022-11-02T10:56:15;13.40;99.90
6110;DHT22;3085;49.444;11.054;2022-11-02T10:58:50;13.40;99.90
6110;DHT22;3085;49.444;11.054;2022-11-02T11:01:18;13.40;99.90
6110;DHT22;3085;49.444;11.054;2022-11-02T11:03:56;13.50;99.90
6110;DHT22;3085;49.444;11.054;2022-11-02T11:06:24;13.80;99.90
6110;DHT22;3085;49.444;11.054;2022-11-02T11:08:58;13.60;99.90
6110;DHT22;3085;49.444;11.054;2022-11-02T11:11:27;13.60;99.90
6110;DHT22;3085;49.444;11.054;2022-11-02T11:13:59;13.60;99.90
6110;DHT22;3085;49.444;11.054;2022-11-02T11:16:32;13.50;99.90
6110;DHT22;3085;49.444;11.054;2022-11-02T11:19:00;13.60;99.90
6110;DHT22;3085;49.444;11.054;2022-11-02T11:21:35;13.60;99.90
6110;DHT22;3085;49.444;11.054;2022-11-02T11:24:24;13.70;99.90
6110;DHT22;3085;49.444;11.054;2022-11-02T11:27:03;13.60;99.90
6110;DHT22;3085;49.444;11.054;2022-11-02T11:29:34;13.60;99.90
6110;DHT22;3085;49.444;11.054;2022-11-02T11:32:03;13.50;99.90
6110;DHT22;3085;49.444;11.054;2022-11-02T11:34:32;13.50;99.90
6110;DHT22;3085;49.444;11.054;2022-11-02T11:37:07;13.60;99.90
6110;DHT22;3085;49.444;11.054;2022-11-02T11:39:37;13.60;99.90
6110;DHT22;3085;49.444;11.054;2022-11-02T11:42:13;13.60;99.90
6110;DHT22;3085;49.444;11.054;2022-11-02T11:44:45;13.80;99.90
6110;DHT22;3085;49.444;11.054;2022-11-02T11:47:12;13.70;99.90
6110;DHT22;3085;49.444;11.054;2022-11-02T11:49:46;13.80;99.90
6110;DHT22;3085;49.444;11.054;2022-11-02T11:52:19;13.80;99.90
6110;DHT22;3085;49.444;11.054;2022-11-02T11:54:54;13.80;99.90
6110;DHT22;3085;49.444;11.054;2022-11-02T11:57:27;13.80;99.90
6110;DHT22;3085;49.444;11.054;2022-11-02T11:59:58;13.80;99.90
6110;DHT22;3085;49.444;11.054;2022-11-02T12:02:28;13.80;99.90
6110;DHT22;3085;49.444;11.054;2022-11-02T12:05:00;13.90;99.90
6110;DHT22;3085;49.444;11.054;2022-11-02T12:10:41;14.00;99.90
6110;DHT22;3085;49.444;11.054;2022-11-02T12:13:23;14.00;99.90
6110;DHT22;3085;49.444;11.054;2022-11-02T12:16:05;14.00;99.90
6110;DHT22;3085;49.444;11.054;2022-11-02T12:18:54;14.00;99.90
6110;DHT22;3085;49.444;11.054;2022-11-02T12:21:42;14.10;99.90
6110;DHT22;3085;49.444;11.054;2022-11-02T12:24:37;14.10;99.90
6110;DHT22;3085;49.444;11.054;2022-11-02T12:27:12;14.10;99.90
6110;DHT22;3085;49.444;11.054;2022-11-02T12:29:55;14.10;99.90
6110;DHT22;3085;49.444;11.054;2022-11-02T12:32:47;14.10;99.90
6110;DHT22;3085;49.444;11.054;2022-11-02T12:35:33;14.00;99.90
6110;DHT22;3085;49.444;11.054;2022-11-02T12:38:12;14.10;99.90
6110;DHT22;3085;49.444;11.054;2022-11-02T12:40:50;14.20;99.90
6110;DHT22;3085;49.444;11.054;2022-11-02T12:46:27;14.10;99.90
6110;DHT22;3085;49.444;11.054;2022-11-02T12:49:07;14.10;99.90
6110;DHT22;3085;49.444;11.054;2022-11-02T12:51:47;14.20;99.90
6110;DHT22;3085;49.444;11.054;2022-11-02T12:54:19;14.20;99.90
6110;DHT22;3085;49.444;11.054;2022-11-02T12:56:48;14.10;99.90
6110;DHT22;3085;49.444;11.054;2022-11-02T12:59:20;14.20;99.90
6110;DHT22;3085;49.444;11.054;2022-11-02T13:01:50;14.20;99.90
6110;DHT22;3085;49.444;11.054;2022-11-02T13:04:22;14.10;99.90
6110;DHT22;3085;49.444;11.054;2022-11-02T13:06:54;14.10;99.90
6110;DHT22;3085;49.444;11.054;2022-11-02T13:09:26;14.20;99.90
6110;DHT22;3085;49.444;11.054;2022-11-02T13:11:59;14.30;99.90
6110;DHT22;3085;49.444;11.054;2022-11-02T13:14:30;14.10;99.90
6110;DHT22;3085;49.444;11.054;2022-11-02T13:17:04;14.20;99.90
6110;DHT22;3085;49.444;11.054;2022-11-02T13:19:37;14.20;99.90
6110;DHT22;3085;49.444;11.054;2022-11-02T13:22:08;14.10;99.90
6110;DHT22;3085;49.444;11.054;2022-11-02T13:24:39;14.10;99.90
6110;DHT22;3085;49.444;11.054;2022-11-02T13:27:24;14.20;99.90
6110;DHT22;3085;49.444;11.054;2022-11-02T13:29:52;14.40;99.90
6110;DHT22;3085;49.444;11.054;2022-11-02T13:32:24;14.40;99.90
6110;DHT22;3085;49.444;11.054;2022-11-02T13:34:55;14.50;99.90
6110;DHT22;3085;49.444;11.054;2022-11-02T13:37:26;14.50;99.90
6110;DHT22;3085;49.444;11.054;2022-11-02T13:39:56;14.60;99.90
6110;DHT22;3085;49.444;11.054;2022-11-02T13:45:29;14.70;99.90
6110;DHT22;3085;49.444;11.054;2022-11-02T13:48:34;14.70;99.90
6110;DHT22;3085;49.444;11.054;2022-11-02T13:51:07;14.50;99.90
6110;DHT22;3085;49.444;11.054;2022-11-02T13:53:39;15.40;99.90
6110;DHT22;3085;49.444;11.054;2022-11-02T13:56:11;14.50;99.90
6110;DHT22;3085;49.444;11.054;2022-11-02T13:58:52;14.70;99.90
6110;DHT22;3085;49.444;11.054;2022-11-02T14:01:21;14.80;99.90
6110;DHT22;3085;49.444;11.054;2022-11-02T14:03:51;14.90;99.90
6110;DHT22;3085;49.444;11.054;2022-11-02T14:06:20;15.00;99.90
6110;DHT22;3085;49.444;11.054;2022-11-02T14:08:50;15.60;99.90
6110;DHT22;3085;49.444;11.054;2022-11-02T14:11:32;16.30;99.90
6110;DHT22;3085;49.444;11.054;2022-11-02T14:19:53;17.60;99.90
6110;DHT22;3085;49.444;11.054;2022-11-02T14:22:22;17.20;99.90
6110;DHT22;3085;49.444;11.054;2022-11-02T14:25:16;17.50;99.90
6110;DHT22;3085;49.444;11.054;2022-11-02T14:27:44;17.90;99.90
6110;DHT22;3085;49.444;11.054;2022-11-02T14:30:40;18.10;99.90
6110;DHT22;3085;49.444;11.054;2022-11-02T14:36:17;17.30;99.90
6110;DHT22;3085;49.444;11.054;2022-11-02T14:38:57;17.10;99.90
6110;DHT22;3085;49.444;11.054;2022-11-02T14:41:46;16.20;99.90
6110;DHT22;3085;49.444;11.054;2022-11-02T14:44:30;15.40;99.90
6110;DHT22;3085;49.444;11.054;2022-11-02T14:47:06;15.00;99.90
6110;DHT22;3085;49.444;11.054;2022-11-02T14:49:37;14.90;99.90
6110;DHT22;3085;49.444;11.054;2022-11-02T14:52:12;14.70;99.90
6110;DHT22;3085;49.444;11.054;2022-11-02T14:54:49;14.70;99.90
6110;DHT22;3085;49.444;11.054;2022-11-02T14:57:22;15.70;99.90
6110;DHT22;3085;49.444;11.054;2022-11-02T14:59:52;14.50;99.90
6110;DHT22;3085;49.444;11.054;2022-11-02T15:02:22;14.60;99.90
6110;DHT22;3085;49.444;11.054;2022-11-02T15:04:53;14.40;99.90
6110;DHT22;3085;49.444;11.054;2022-11-02T15:07:24;14.20;99.90
6110;DHT22;3085;49.444;11.054;2022-11-02T15:09:58;12.70;99.90
6110;DHT22;3085;49.444;11.054;2022-11-02T15:12:36;14.10;99.90
6110;DHT22;3085;49.444;11.054;2022-11-02T15:15:24;14.10;99.90
6110;DHT22;3085;49.444;11.054;2022-11-02T15:17:57;14.00;99.90
6110;DHT22;3085;49.444;11.054;2022-11-02T15:20:28;14.00;99.90
6110;DHT22;3085;49.444;11.054;2022-11-02T15:23:18;14.00;99.90
6110;DHT22;3085;49.444;11.054;2022-11-02T15:25:50;13.90;99.90
6110;DHT22;3085;49.444;11.054;2022-11-02T15:28:21;13.90;99.90
6110;DHT22;3085;49.444;11.054;2022-11-02T15:30:50;14.10;99.90
6110;DHT22;3085;49.444;11.054;2022-11-02T15:33:35;14.00;99.90
6110;DHT22;3085;49.444;11.054;2022-11-02T15:36:05;14.00;99.90
6110;DHT22;3085;49.444;11.054;2022-11-02T15:38:33;14.00;99.90
6110;DHT22;3085;49.444;11.054;2022-11-02T15:41:14;14.00;99.90
6110;DHT22;3085;49.444;11.054;2022-11-02T15:44:03;14.00;99.90
6110;DHT22;3085;49.444;11.054;2022-11-02T15:46:43;14.00;99.90
6110;DHT22;3085;49.444;11.054;2022-11-02T15:49:26;14.00;99.90
6110;DHT22;3085;49.444;11.054;2022-11-02T15:52:00;13.90;99.90
6110;DHT22;3085;49.444;11.054;2022-11-02T15:54:45;13.90;99.90
6110;DHT22;3085;49.444;11.054;2022-11-02T15:57:23;13.90;99.90
6110;DHT22;3085;49.444;11.054;2022-11-02T16:00:04;13.90;99.90
6110;DHT22;3085;49.444;11.054;2022-11-02T16:02:35;13.90;99.90
6110;DHT22;3085;49.444;11.054;2022-11-02T16:05:06;13.90;99.90
6110;DHT22;3085;49.444;11.054;2022-11-02T16:07:45;13.80;99.90
6110;DHT22;3085;49.444;11.054;2022-11-02T16:10:24;12.30;99.90
6110;DHT22;3085;49.444;11.054;2022-11-02T16:15:23;13.70;99.90
6110;DHT22;3085;49.444;11.054;2022-11-02T16:17:50;13.60;99.90
6110;DHT22;3085;49.444;11.054;2022-11-02T16:20:18;13.60;99.90
6110;DHT22;3085;49.444;11.054;2022-11-02T16:22:46;13.60;99.90
6110;DHT22;3085;49.444;11.054;2022-11-02T16:25:20;13.60;99.90
6110;DHT22;3085;49.444;11.054;2022-11-02T16:27:47;13.50;99.90
6110;DHT22;3085;49.444;11.054;2022-11-02T16:30:19;13.50;99.90
6110;DHT22;3085;49.444;11.054;2022-11-02T16:32:51;13.40;99.90
6110;DHT22;3085;49.444;11.054;2022-11-02T16:35:25;13.40;99.90
6110;DHT22;3085;49.444;11.054;2022-11-02T16:37:52;13.40;99.90
6110;DHT22;3085;49.444;11.054;2022-11-02T16:40:20;13.40;99.90
6110;DHT22;3085;49.444;11.054;2022-11-02T16:42:49;13.30;99.90